Aguayo, Argentina
Current Conditions -  °F | °C
As of 1:00 PM on Monday 24 Nov 2014 (Local Time) from SACO Reporting Station
Broken Clouds Broken Clouds  
Wind Chill: 68°   Ceiling: 2000
Heat Index: 68°   Visibility: 6mi
Dew Point: 52°   Wind: 20mph
Humidity: 56%   Direction: 200°SSW
Pressure: 29.97"   Gusts: NA
Location:  31.58°S, 66.02°W
Report Text: SACO 241600Z 20017KT 9999 BKN020 SCT02520/11 Q1015
Loading
Personal Weather Stations






























Interactive Weather Map New forecast layout! Learn more

10-Day Weather Forecast

Advertisements
Track Severe Weather on mobile